Terminal Aerodrome Forecast
Issued by NWS

Home | Current Version | Previous Version | Text Only | Print | Product List | Glossary On
Versions: 1 2 3 4 5 6 7 8 9 10 11 12 13 14 15 16
871
FTUS46 KLOX 060808 AAB
TAFBUR
TAF AMD
KBUR 060808Z 0608/0706 VRB03KT P6SM OVC025
     FM061600 VRB03KT P6SM BKN035
     FM062000 17008KT P6SM BKN250
     FM070300 VRB03KT P6SM BKN250=

USA.gov is the U.S. government's official web portal to all federal, state and local government web resources and services.